Terminal Aerodrome Forecast
Issued by NWS

Home | Current Version | Previous Version | Text Only | Print | Product List | Glossary On
Versions: 1 2 3 4 5 6 7 8 9 10 11 12 13 14 15 16 17 18 19 20 21 22 23 24
358
FTUS41 KGYX 271907 AAA
TAFAUG
TAF AMD
KAUG 271907Z 2719/2818 09006KT 1 1/2SM -PL BR OVC006
     FM272100 10008KT 3SM BR OVC005
     FM280200 01005KT 3SM -SHRA BR OVC008=

USA.gov is the U.S. government's official web portal to all federal, state and local government web resources and services.